Bangkok (Don Mueang), Thailand

8:08 PM ICT on January 31, 2015 (GMT +0700)
Khu Khot | Change Station
CLOSE
Current Station
Personal Weather Station
Location: Pathum Thani, PATHUM THANI
Elevation: 15 ft
Nearby Weather Stations

Elev 15 ft 13.96 °N, 100.65 °E | Updated 46 seconds ago

Mostly Cloudy
Mostly Cloudy
82.6 °F
Feels Like 88 °F
N
1.6
Wind Variable Wind from ENE
Gusts 1.6 mph

Today
High -- | Low -- °F
--% Chance of Precip.
Yesterday
High -- | Low -- °F
Precip. -- in
6:45 AM 6:16 PM
Waxing Gibbous, 89% visible
Pressure 29.95 in
Visibility 5.6 miles
Clouds Few 2000 ft
Mostly Cloudy 30000 ft
Heat Index 88 °F
Dew Point 73 °F
Humidity 73%
Rainfall 0.00 in
Snow Depth Not available.
UV 0 out of 12
Pollen Not available.
Air Quality Not available.
Flu Activity Not available.
METAR VTBD 311300Z 16005KT 9000 FEW020 BKN300 29/22 Q1014 NOSIG

More Conditions Fewer Conditions

Pressure 29.95 in
Visibility 5.6 miles
Clouds Few 2000 ft
Mostly Cloudy 30000 ft
Heat Index 88 °F
Dew Point 73 °F
Humidity 73%
Rainfall 0.00 in
Snow Depth Not available.
UV 0 out of 12
Pollen Not available.
Air Quality Not available.
Flu Activity Not available.
METAR VTBD 311300Z 16005KT 9000 FEW020 BKN300 29/22 Q1014 NOSIG

More Conditions Fewer Conditions

10-Day Weather Forecast

Almanac

Astronomy

Jan. 31, 2015 Rise Set
Actual Time
Civil Twilight
Nautical Twilight
Astronomical Twilight
Moon
Length of Visible Light
Length of Day
Tomorrow will be .
, % of the Moon is Illuminated

Today's Extremes

Country Highs Country Lows

Community

WunderPhotos

Upload Photos

1,792,041 photos uploaded!

WunderBlogs® & News

Nearby

Air Quality

  Air Quality AQ Index Pollutant
Not available.

Snow Depth

Station Depth Elevation

Earthquake Activity

City Distance Mag. Time & Date
Minimum magnitude displayed is 2.5.

Coastal Water Temperatures

Place Temperature

Nearby Weather Stations